Time;durP1;ratioP1;P1;durP2;ratioP2;P2;SDS_P1;SDS_P2;PMS_P1;PMS_P2;Temp;Humidity;BMP_temperature;BMP_pressure;BME280_temperature;BME280_humidity;BME280_pressure;Samples;Min_cycle;Max_cycle;Signal;HPM_P1;HPM_P2
2022/04/06 00:03:40;;;;;;;1.13;1.02;;;;;;;18.98;40.93;99483.63;10167321;27;66288;-70
2022/04/06 00:08:32;;;;;;;1.48;1.25;;;;;;;18.98;40.91;99483.63;10178782;27;66477;-72
2022/04/06 00:13:24;;;;;;;1.40;1.30;;;;;;;18.97;40.99;99472.94;10175276;27;66575;-69
2022/04/06 00:18:18;;;;;;;1.77;1.17;;;;;;;18.98;40.99;99475.38;10180128;27;66059;-66
2022/04/06 00:23:10;;;;;;;1.10;1.00;;;;;;;19.00;40.95;99458.59;10175333;27;66386;-67
2022/04/06 00:28:02;;;;;;;1.23;1.13;;;;;;;18.99;40.94;99459.72;10174875;27;66360;-66
2022/04/06 00:32:54;;;;;;;0.90;0.90;;;;;;;19.01;40.86;99457.44;10191353;27;66346;-69
2022/04/06 00:37:47;;;;;;;1.20;0.93;;;;;;;19.02;41.07;99455.50;10181040;27;66412;-68
2022/04/06 00:42:39;;;;;;;1.20;1.10;;;;;;;19.02;41.01;99448.09;10169020;27;65590;-69
2022/04/06 00:47:31;;;;;;;1.27;1.17;;;;;;;19.07;40.88;99450.66;10169473;27;66475;-70
2022/04/06 00:52:23;;;;;;;1.27;1.00;;;;;;;19.03;40.89;99449.69;10164688;27;66430;-67
2022/04/06 00:57:16;;;;;;;1.63;1.35;;;;;;;19.11;40.79;99442.56;10150520;27;66376;-68
2022/04/06 09:38:25;;;;;;;2.65;1.02;;;;;;;18.15;42.85;99285.41;10244002;27;44411;-69
2022/04/06 09:43:27;;;;;;;3.58;1.13;;;;;;;18.47;42.17;99288.72;10241242;27;66335;-71
2022/04/06 09:48:19;;;;;;;1.80;1.08;;;;;;;18.51;41.94;99289.69;10243067;27;65498;-71
2022/04/06 09:53:11;;;;;;;3.17;1.05;;;;;;;18.65;41.69;99287.59;10242152;27;66279;-71
2022/04/06 09:58:05;;;;;;;2.30;0.82;;;;;;;18.96;41.15;99288.13;10238612;27;66463;-71
2022/04/06 10:03:00;;;;;;;1.85;0.82;;;;;;;19.04;41.18;99274.69;10241495;27;66632;-71
2022/04/06 10:07:53;;;;;;;2.13;0.90;;;;;;;18.96;41.27;99287.31;10241739;27;64210;-72
2022/04/06 10:12:45;;;;;;;2.53;1.08;;;;;;;18.81;41.59;99272.19;10242167;27;66450;-71
2022/04/06 10:17:39;;;;;;;1.45;0.70;;;;;;;18.83;41.64;99260.84;10240124;27;66688;-72
2022/04/06 10:22:32;;;;;;;2.05;0.77;;;;;;;18.79;41.61;99254.44;10235948;27;65352;-71
2022/04/06 10:27:26;;;;;;;2.63;0.70;;;;;;;18.78;41.50;99255.56;10212652;27;65719;-71
2022/04/06 10:32:34;;;;;;;1.58;0.90;;;;;;;18.83;41.59;99256.19;10238977;27;66357;-71
2022/04/06 10:37:27;;;;;;;8.88;1.10;;;;;;;18.83;41.55;99242.44;10234866;27;65426;-64
2022/04/06 10:42:30;;;;;;;2.25;0.80;;;;;;;18.85;41.54;99233.88;10241797;27;65569;-70
2022/04/06 10:47:22;;;;;;;6.10;1.10;;;;;;;18.81;41.55;99228.25;10225041;27;65601;-70
2022/04/06 10:52:18;;;;;;;2.92;0.80;;;;;;;18.84;41.63;99224.03;10212597;27;65510;-69
2022/04/06 10:57:12;;;;;;;2.72;0.95;;;;;;;18.86;41.49;99219.81;10207860;27;66478;-71
2022/04/06 11:02:20;;;;;;;3.40;0.80;;;;;;;18.98;41.09;99210.88;10201679;27;65535;-78
2022/04/06 11:07:15;;;;;;;3.38;0.90;;;;;;;19.08;41.14;99202.25;10210980;27;66556;-71
2022/04/06 11:12:12;;;;;;;3.90;0.70;;;;;;;19.05;41.25;99193.88;10200836;27;66244;-74
2022/04/06 11:17:37;;;;;;;3.33;1.02;;;;;;;19.15;41.14;99188.81;10206470;27;66137;-73
2022/04/06 11:22:29;;;;;;;2.08;0.73;;;;;;;18.99;41.22;99185.81;10195231;27;65428;-62
2022/04/06 11:27:28;;;;;;;2.22;1.10;;;;;;;18.94;41.48;99187.97;10189843;27;66085;-72
2022/04/06 11:32:20;;;;;;;1.85;1.00;;;;;;;19.14;40.67;99173.44;10199080;27;66186;-71
2022/04/06 11:37:12;;;;;;;3.88;1.00;;;;;;;18.97;41.21;99181.78;10178431;27;66322;-60
2022/04/06 11:42:05;;;;;;;6.90;1.00;;;;;;;19.15;40.75;99174.25;10196564;27;66153;-79
2022/04/06 11:46:58;;;;;;;2.55;0.98;;;;;;;19.32;40.72;99165.91;10205370;27;66409;-76
2022/04/06 11:51:51;;;;;;;3.22;1.10;;;;;;;19.20;40.78;99166.63;10209825;27;66299;-79
2022/04/06 11:56:43;;;;;;;2.42;1.05;;;;;;;19.17;40.76;99175.53;10204287;27;65632;-79
2022/04/06 12:01:42;;;;;;;5.68;1.05;;;;;;;19.07;40.92;99164.13;10193852;27;65452;-79
2022/04/06 12:06:36;;;;;;;4.85;0.90;;;;;;;19.26;40.66;99154.31;10410526;22;65356;-74
2022/04/06 12:11:28;;;;;;;2.33;0.90;;;;;;;19.35;40.71;99155.03;10083907;28;66395;-69
2022/04/06 12:16:22;;;;;;;4.90;1.10;;;;;;;19.43;40.33;99147.03;10085008;28;66417;-74
2022/04/06 12:21:21;;;;;;;2.33;0.95;;;;;;;19.34;40.60;99145.16;10515502;22;66625;-69
2022/04/06 12:26:15;;;;;;;4.65;1.10;;;;;;;19.35;40.61;99133.03;10078353;28;66418;-72
2022/04/06 12:31:07;;;;;;;3.67;1.00;;;;;;;19.52;40.29;99134.06;10084958;28;66368;-70
2022/04/06 12:36:06;;;;;;;5.55;1.08;;;;;;;19.55;40.26;99128.72;10089537;28;66419;-71
2022/04/06 12:41:04;;;;;;;4.88;1.30;;;;;;;19.56;40.34;99118.53;10084512;28;66315;-58
2022/04/06 12:45:57;;;;;;;3.55;1.08;;;;;;;19.50;40.33;99123.41;10083982;28;66077;-58
2022/04/06 12:50:49;;;;;;;3.03;0.88;;;;;;;19.50;40.15;99128.09;10073256;28;66408;-60
2022/04/06 12:55:41;;;;;;;6.63;1.60;;;;;;;17.96;38.06;99134.06;10084343;28;66399;-75
2022/04/06 13:00:34;;;;;;;4.05;1.77;;;;;;;17.57;37.69;99121.38;10084906;28;66920;-72
2022/04/06 13:05:27;;;;;;;11.77;2.00;;;;;;;17.59;37.49;99121.88;10095492;28;65640;-72
2022/04/06 13:10:20;;;;;;;7.32;2.03;;;;;;;17.52;37.15;99120.75;10092771;28;66244;-74
2022/04/06 13:15:13;;;;;;;4.05;1.33;;;;;;;17.41;36.84;99107.34;10085102;28;66537;-71
2022/04/06 13:20:06;;;;;;;4.68;1.30;;;;;;;17.58;36.76;99100.25;10085922;28;66368;-68
2022/04/06 13:24:59;;;;;;;3.78;1.33;;;;;;;17.12;37.01;99101.72;10083905;28;65481;-71
2022/04/06 13:29:51;;;;;;;5.20;1.40;;;;;;;17.65;36.85;99100.59;10083591;28;66928;-58
2022/04/06 13:34:44;;;;;;;4.30;1.15;;;;;;;17.43;36.57;99080.44;10082133;28;66408;-71
2022/04/06 13:39:36;;;;;;;4.68;1.08;;;;;;;17.50;36.94;99079.16;10085063;28;65483;-64
2022/04/06 13:44:31;;;;;;;5.80;1.50;;;;;;;18.06;36.41;99076.16;10089446;28;65724;-66
2022/04/06 13:49:23;;;;;;;5.43;1.17;;;;;;;18.21;36.14;99067.38;10083074;28;65837;-59
2022/04/06 13:54:16;;;;;;;3.55;1.27;;;;;;;18.33;36.38;99052.13;10086855;28;66299;-59
2022/04/06 13:59:08;;;;;;;3.92;1.00;;;;;;;18.36;36.33;99038.56;10093009;28;66852;-63
2022/04/06 14:04:01;;;;;;;6.65;1.58;;;;;;;18.40;36.32;99038.69;10101506;28;65564;-59
2022/04/06 14:08:53;;;;;;;2.50;1.10;;;;;;;18.46;36.18;99042.84;10084353;28;65519;-60
2022/04/06 14:13:45;;;;;;;3.35;1.23;;;;;;;18.46;36.25;99042.84;10084237;28;65615;-60
2022/04/06 14:18:37;;;;;;;8.13;1.33;;;;;;;18.44;36.29;99032.22;10084284;28;66265;-60
2022/04/06 14:23:31;;;;;;;5.88;1.60;;;;;;;18.45;36.36;99033.03;10084050;28;66401;-59
2022/04/06 14:28:23;;;;;;;8.93;1.45;;;;;;;18.45;36.42;99035.78;10074508;28;66458;-71
2022/04/06 14:33:15;;;;;;;8.20;1.30;;;;;;;18.51;36.30;99015.22;10089570;28;66001;-58
2022/04/06 14:38:07;;;;;;;4.90;1.35;;;;;;;18.49;36.50;98995.53;10091405;28;66385;-61
2022/04/06 14:43:00;;;;;;;9.40;1.42;;;;;;;18.18;37.10;98993.16;10090776;28;66450;-58
2022/04/06 14:47:52;;;;;;;4.22;1.00;;;;;;;18.12;37.17;98991.72;10090929;28;66413;-59
2022/04/06 14:52:48;;;;;;;2.47;1.10;;;;;;;18.26;37.49;98989.53;10092766;28;66292;-58
2022/04/06 14:57:40;;;;;;;2.10;0.85;;;;;;;18.47;37.57;98984.88;10083103;28;65409;-72
2022/04/06 15:02:33;;;;;;;2.65;0.93;;;;;;;18.59;37.73;98965.78;10087719;28;66575;-72
2022/04/06 15:07:26;;;;;;;3.00;0.90;;;;;;;18.65;38.05;98973.81;10090021;28;65944;-70
2022/04/06 15:12:19;;;;;;;3.40;1.10;;;;;;;18.76;38.02;98970.31;10089541;28;65602;-68
2022/04/06 15:17:11;;;;;;;2.85;0.82;;;;;;;18.80;38.11;98964.97;10085737;28;66474;-70
2022/04/06 15:22:05;;;;;;;5.25;1.08;;;;;;;18.85;38.33;98962.00;10086805;28;66303;-70
2022/04/06 15:26:57;;;;;;;3.70;0.88;;;;;;;18.85;38.42;98960.06;10080109;28;65629;-70
2022/04/06 15:31:49;;;;;;;2.58;0.80;;;;;;;18.85;38.55;98968.31;10093564;28;66309;-70
2022/04/06 15:41:52;;;;;;;1.63;0.80;;;;;;;18.86;38.50;98966.38;10090022;28;67304;-70
2022/04/06 15:46:44;;;;;;;2.88;0.60;;;;;;;18.85;38.81;98959.28;10088749;28;66358;-72
2022/04/06 15:51:36;;;;;;;2.63;0.75;;;;;;;18.91;38.63;98950.47;10089814;28;66447;-69
2022/04/06 15:56:28;;;;;;;1.35;0.80;;;;;;;18.94;38.72;98957.25;10088795;28;66288;-72
2022/04/06 16:01:21;;;;;;;4.07;0.75;;;;;;;18.92;38.76;98957.59;10089330;28;65532;-75
2022/04/06 16:06:13;;;;;;;2.17;0.73;;;;;;;18.95;38.80;98961.63;10088813;28;66237;-74
2022/04/06 16:11:06;;;;;;;5.70;0.95;;;;;;;18.94;38.87;98963.56;10081386;28;66523;-72
2022/04/06 16:15:58;;;;;;;1.75;0.70;;;;;;;18.97;38.83;98965.59;10099799;28;66238;-73
2022/04/06 16:20:51;;;;;;;2.42;0.80;;;;;;;18.96;38.75;98954.97;10087210;28;66175;-76
2022/04/06 16:25:43;;;;;;;0.95;0.65;;;;;;;18.95;38.83;98959.66;10076915;28;65866;-72
2022/04/06 16:30:36;;;;;;;1.55;0.70;;;;;;;18.97;39.01;98951.88;10084781;28;66451;-73
2022/04/06 16:35:28;;;;;;;1.38;0.60;;;;;;;18.99;38.81;98954.28;10084729;28;66332;-75
2022/04/06 16:40:21;;;;;;;2.03;1.00;;;;;;;18.94;38.65;98958.06;10087606;28;65504;-75
2022/04/06 16:45:13;;;;;;;2.22;0.93;;;;;;;18.94;38.52;98947.06;10086200;28;66403;-72
2022/04/06 16:55:18;;;;;;;4.65;0.90;;;;;;;19.03;38.90;98933.25;10087618;28;67269;-75
2022/04/06 17:00:15;;;;;;;3.35;0.80;;;;;;;19.05;38.89;98921.91;10093743;28;66634;-76
2022/04/06 17:05:08;;;;;;;1.50;0.60;;;;;;;19.07;38.85;98919.63;10086314;28;65478;-71
2022/04/06 17:10:00;;;;;;;1.50;0.70;;;;;;;19.09;38.76;98920.09;10085063;28;66170;-70
2022/04/06 17:14:52;;;;;;;2.47;0.50;;;;;;;18.98;38.97;98915.03;10085398;28;66180;-59
2022/04/06 17:19:45;;;;;;;0.75;0.52;;;;;;;18.96;38.71;98914.59;10085741;28;66323;-59
2022/04/06 17:24:37;;;;;;;0.60;0.50;;;;;;;18.95;38.53;98926.72;10083818;28;66405;-60
2022/04/06 17:29:29;;;;;;;4.30;0.90;;;;;;;18.98;38.72;98926.00;10085067;28;65621;-71
2022/04/06 17:34:21;;;;;;;1.17;0.60;;;;;;;18.99;38.80;98932.31;10082329;28;65550;-73
2022/04/06 17:39:17;;;;;;;0.82;0.50;;;;;;;19.03;38.70;98919.53;10086172;28;66156;-72
2022/04/06 17:44:09;;;;;;;1.48;0.68;;;;;;;19.07;38.82;98917.69;10085273;28;65518;-73
2022/04/06 17:49:05;;;;;;;1.25;0.77;;;;;;;19.07;38.81;98914.94;10083970;28;65562;-73
2022/04/06 17:53:57;;;;;;;1.25;0.60;;;;;;;19.10;38.97;98918.97;10076364;28;66305;-75
2022/04/06 17:58:51;;;;;;;4.05;0.90;;;;;;;19.10;39.03;98911.53;10105607;28;66099;-72
2022/04/06 18:03:43;;;;;;;1.95;0.70;;;;;;;19.11;38.77;98906.84;10092122;28;65352;-67
2022/04/06 18:08:35;;;;;;;1.98;0.55;;;;;;;19.13;38.96;98902.59;10077913;28;66335;-66
2022/04/06 18:13:43;;;;;;;1.33;0.50;;;;;;;19.12;39.04;98895.50;10088467;28;66327;-70
2022/04/06 18:18:36;;;;;;;2.15;0.70;;;;;;;19.18;39.21;98893.34;10086332;28;65720;-65
2022/04/06 18:23:29;;;;;;;1.27;0.60;;;;;;;19.15;39.28;98894.03;10089167;28;65541;-63
2022/04/06 18:28:21;;;;;;;0.70;0.50;;;;;;;19.18;39.31;98891.41;10090390;28;66322;-62
2022/04/06 18:33:13;;;;;;;1.73;0.60;;;;;;;19.17;39.34;98892.53;10084355;28;65489;-61
2022/04/06 18:38:07;;;;;;;1.65;0.63;;;;;;;19.19;39.27;98892.22;10087576;28;65457;-63
2022/04/06 18:43:01;;;;;;;0.57;0.40;;;;;;;19.18;39.33;98885.91;10089185;28;65613;-64
2022/04/06 18:47:53;;;;;;;1.15;0.65;;;;;;;19.22;39.33;98888.75;10076290;28;67017;-62
2022/04/06 18:52:46;;;;;;;1.33;0.63;;;;;;;19.22;39.49;98875.84;10087824;28;65397;-63
2022/04/06 18:57:39;;;;;;;2.60;0.60;;;;;;;19.32;39.34;98875.41;10089976;28;65869;-66
2022/04/06 19:02:32;;;;;;;1.10;0.52;;;;;;;19.27;39.51;98875.59;10079878;28;65506;-67
2022/04/06 19:07:24;;;;;;;1.25;0.55;;;;;;;19.27;39.39;98877.53;10089066;28;66454;-68
2022/04/06 19:12:16;;;;;;;0.65;0.43;;;;;;;19.28;39.47;98876.41;10087306;28;66458;-67
2022/04/06 19:17:09;;;;;;;2.53;0.55;;;;;;;19.29;39.46;98878.81;10089432;28;65603;-68
2022/04/06 19:22:01;;;;;;;0.80;0.52;;;;;;;19.30;39.41;98869.44;10087527;28;66502;-67
2022/04/06 19:26:53;;;;;;;1.77;0.43;;;;;;;19.32;39.40;98867.16;10088278;28;66358;-68
2022/04/06 19:31:45;;;;;;;4.63;0.57;;;;;;;19.42;39.33;98868.63;10073306;28;66559;-64
2022/04/06 19:36:38;;;;;;;0.57;0.47;;;;;;;19.41;39.43;98877.25;10090556;28;65786;-64
2022/04/06 19:41:31;;;;;;;0.77;0.40;;;;;;;19.39;39.48;98870.13;10097495;28;66421;-64
2022/04/06 19:46:22;;;;;;;1.02;0.57;;;;;;;19.42;39.46;98860.38;10091759;28;66403;-62
2022/04/06 19:51:14;;;;;;;1.15;0.68;;;;;;;19.43;39.44;98856.50;10088208;28;66345;-63
2022/04/06 19:56:08;;;;;;;1.55;0.70;;;;;;;19.44;39.52;98857.31;10087296;28;66228;-62
2022/04/06 20:01:00;;;;;;;4.30;0.80;;;;;;;19.41;39.52;98838.75;10091979;28;65617;-60
2022/04/06 20:05:52;;;;;;;1.67;0.80;;;;;;;19.41;39.24;98839.56;10090837;28;65432;-73
2022/04/06 20:10:44;;;;;;;2.80;0.50;;;;;;;19.50;39.02;98847.72;10086859;28;65594;-66
2022/04/06 20:15:37;;;;;;;8.15;0.93;;;;;;;19.48;38.97;98837.09;10086920;28;65629;-65
2022/04/06 20:20:29;;;;;;;2.65;0.47;;;;;;;19.51;38.86;98819.06;10085470;28;66347;-69
2022/04/06 20:25:21;;;;;;;0.90;0.50;;;;;;;19.53;38.61;98838.78;10086607;28;65532;-67
2022/04/06 20:30:14;;;;;;;1.08;0.57;;;;;;;19.56;38.62;98827.13;10086740;28;66270;-67
2022/04/06 20:35:09;;;;;;;2.17;0.50;;;;;;;19.54;38.52;98824.69;10083460;28;66475;-67
2022/04/06 20:40:01;;;;;;;4.97;0.70;;;;;;;19.61;38.64;98824.13;10077980;28;66263;-61
2022/04/06 20:44:53;;;;;;;4.38;0.70;;;;;;;19.65;38.46;98814.81;10082394;28;66196;-66
2022/04/06 20:49:45;;;;;;;1.58;0.60;;;;;;;19.61;38.40;98810.38;10085666;28;66399;-66
2022/04/06 20:54:39;;;;;;;2.72;0.65;;;;;;;19.63;38.30;98811.66;10082557;28;65615;-64
2022/04/06 20:59:31;;;;;;;2.85;0.70;;;;;;;19.60;38.29;98808.75;10095830;28;66380;-63
2022/04/06 21:04:23;;;;;;;0.98;0.55;;;;;;;19.63;38.25;98786.91;10088770;28;66357;-65
2022/04/06 21:09:16;;;;;;;1.13;0.65;;;;;;;19.65;38.25;98781.84;10084827;28;65526;-69
2022/04/06 21:14:09;;;;;;;1.77;0.57;;;;;;;19.64;38.21;98788.47;10050476;28;66407;-69
2022/04/06 21:19:01;;;;;;;1.27;0.55;;;;;;;19.64;38.32;98782.97;10085170;28;66409;-68
2022/04/06 21:23:53;;;;;;;5.07;0.60;;;;;;;19.66;38.21;98782.63;10084314;28;65529;-64
2022/04/06 21:28:45;;;;;;;5.57;1.00;;;;;;;19.68;38.24;98772.09;10071828;28;65495;-70
2022/04/06 21:33:39;;;;;;;0.73;0.50;;;;;;;19.66;38.31;98761.44;10091080;28;66356;-66
2022/04/06 21:38:31;;;;;;;1.98;0.65;;;;;;;19.68;38.32;98769.34;10079878;28;65207;-68
2022/04/06 21:43:23;;;;;;;1.23;0.55;;;;;;;19.70;38.06;98769.81;10084383;28;65640;-65
2022/04/06 21:48:15;;;;;;;5.03;0.60;;;;;;;19.72;38.04;98762.00;10084401;28;66567;-65
2022/04/06 21:53:09;;;;;;;2.15;0.60;;;;;;;19.71;38.07;98772.19;10081875;28;66382;-66
2022/04/06 21:58:04;;;;;;;1.13;0.73;;;;;;;19.70;38.10;98769.81;10083197;28;66488;-67
2022/04/06 22:02:58;;;;;;;2.13;0.70;;;;;;;19.68;38.21;98763.84;10093072;28;66394;-71
2022/04/06 22:12:52;;;;;;;2.45;0.50;;;;;;;19.73;38.07;98741.59;10990850;22;43756;-70
2022/04/06 22:17:44;;;;;;;1.55;0.60;;;;;;;19.75;38.21;98745.63;10115793;28;66357;-70
2022/04/06 22:22:36;;;;;;;1.63;0.70;;;;;;;19.74;38.00;98738.50;10123697;28;65714;-71
2022/04/06 22:27:28;;;;;;;1.63;0.63;;;;;;;19.73;38.09;98736.09;10124005;28;66426;-68
2022/04/06 22:32:22;;;;;;;2.15;0.75;;;;;;;19.77;38.13;98732.31;10124880;28;65577;-71
2022/04/06 22:37:14;;;;;;;1.50;0.70;;;;;;;19.85;37.91;98719.59;10122218;28;65527;-70
2022/04/06 22:42:07;;;;;;;1.80;0.70;;;;;;;19.84;37.95;98714.44;10123690;28;65525;-68
2022/04/06 22:46:59;;;;;;;1.30;0.50;;;;;;;19.85;37.83;98707.78;10131520;28;65573;-67
2022/04/06 22:51:52;;;;;;;1.70;0.60;;;;;;;19.84;38.02;98693.22;10131444;28;65510;-68
2022/04/06 22:56:44;;;;;;;1.52;0.70;;;;;;;19.85;37.87;98688.53;10120654;28;66398;-66
2022/04/06 23:01:38;;;;;;;0.85;0.50;;;;;;;19.87;37.79;98691.72;10130403;28;65716;-71
2022/04/06 23:06:31;;;;;;;1.00;0.55;;;;;;;19.86;37.79;98679.13;10128565;28;66377;-70
2022/04/06 23:11:25;;;;;;;1.10;0.50;;;;;;;19.88;37.84;98674.06;10128934;28;66222;-74
2022/04/06 23:16:17;;;;;;;1.90;0.50;;;;;;;19.85;37.83;98672.03;10128470;28;66308;-78
2022/04/06 23:21:09;;;;;;;2.58;0.55;;;;;;;19.82;37.94;98665.28;10129744;28;65526;-74
2022/04/06 23:26:01;;;;;;;0.88;0.60;;;;;;;19.82;37.88;98670.78;10129529;28;66429;-78
2022/04/06 23:30:54;;;;;;;0.75;0.40;;;;;;;19.82;37.91;98658.97;10128908;28;66319;-79
2022/04/06 23:35:46;;;;;;;0.90;0.50;;;;;;;19.81;37.82;98657.38;10128107;28;65658;-80
2022/04/06 23:40:39;;;;;;;0.90;0.65;;;;;;;19.85;37.85;98659.09;10124957;28;66339;-72
2022/04/06 23:45:31;;;;;;;1.23;0.55;;;;;;;19.83;38.00;98657.81;10127776;28;66250;-69
